aviador You're here:

KDDC Decoded Metar

DODGE CITY in KS, USA
Report Time2018-07-22 21:52:00
UTC Time2018-07-22 22:24:53
Flight Rules vfr VFR
Wind110° at 12 Gusting to 18 kt
W.Decomp.*RWY 14: 9.5 kt HW 7.4 kt LCW
RWY 02: 1.7 kt HW 11.9 kt RCW
W.Rank110° ranks 27
Current wind is above 110° avg. (7.6)
Visibility9999 m
Phenomena:N/A
Clouds:N/A
Expected CloudBase > 6,000 ft AGL from Temp-Dew spread
CeilingNone
Temp34°C (ISA +24)
Dew Point19°C (41% RH)
Heat Index35.7°C
AAT32.8°C
QNH1015 hPa
Density Alt5,548 ft
Elevation2,589 ft
Report Wrong Elevation
Raw Report
KDDC 222152Z AUTO 11012G18KT 10SM CLR 34/19 A2996 RMK AO2 SLP107
T03440189=

Extra information for KDDC:More info

Metar Taf Metar & Taf Last 4 Metars F.Rules Stats Wind Profile Meteogram Temp Stats Airport Information Weather charts Add Link Nearby VenuesMetar ALERT Operation Metar Decoded Social comments

AIRNAV info for KDDC